createdAt,value
2023-01-19T01:02:57.885Z,84.66
2023-01-19T01:59:52.111Z,84.39
2023-01-19T02:24:30.662Z,85.52
2023-01-19T02:57:50.463Z,85.54
2023-01-19T04:03:29.335Z,85.42
2023-01-19T04:15:13.502Z,85.91
2023-01-19T04:17:42.068Z,85.88
2023-01-19T04:20:10.983Z,85.82
2023-01-19T04:26:57.902Z,85.43
2023-01-19T04:29:26.225Z,85.63
2023-01-19T04:31:54.671Z,85.48
2023-01-19T04:34:22.868Z,85.54
2023-01-19T04:36:52.029Z,85.81
2023-01-19T04:39:20.702Z,85.38
2023-01-19T04:41:48.909Z,85.79
2023-01-19T04:44:17.233Z,85.92
2023-01-19T04:46:45.618Z,86.19
2023-01-19T04:49:13.987Z,85.80
2023-01-19T04:51:42.431Z,85.39
2023-01-19T04:54:10.887Z,85.38
2023-01-19T04:56:40.395Z,85.57
2023-01-19T04:59:08.598Z,85.54
2023-01-19T06:01:37.519Z,86.87
2023-01-19T06:59:28.188Z,87.42
2023-01-19T07:01:59.422Z,87.23
2023-01-19T07:04:27.358Z,87.16
2023-01-19T07:06:55.796Z,86.84
2023-01-19T07:09:25.685Z,86.81
2023-01-19T07:11:55.207Z,87.02
2023-01-19T07:14:23.287Z,87.02
2023-01-19T07:16:51.039Z,87.24
2023-01-19T07:19:19.208Z,87.15
2023-01-19T07:21:47.054Z,86.85
2023-01-19T07:24:15.128Z,87.11
2023-01-19T07:26:43.072Z,87.03
2023-01-19T07:29:15.234Z,87.10
2023-01-19T07:31:50.877Z,87.00
2023-01-19T07:34:26.893Z,86.92
2023-01-19T07:36:59.794Z,86.96
2023-01-19T07:39:36.950Z,86.94
2023-01-19T07:42:05.288Z,86.78
2023-01-19T07:44:35.548Z,86.87
2023-01-19T07:47:03.713Z,86.16
2023-01-19T07:49:31.579Z,86.74
2023-01-19T07:51:59.315Z,86.63
2023-01-19T07:54:27.004Z,86.67
2023-01-19T07:56:55.463Z,86.35
2023-01-19T07:59:23.276Z,86.83
2023-01-19T08:01:52.302Z,86.57
2023-01-19T08:04:20.620Z,86.18
2023-01-19T08:06:49.569Z,86.11
2023-01-19T08:09:17.436Z,86.21
2023-01-19T08:11:45.601Z,85.78
2023-01-19T08:14:13.321Z,85.82
2023-01-19T08:19:09.264Z,85.54
2023-01-19T08:21:39.108Z,85.46
2023-01-19T08:24:07.728Z,84.72
2023-01-19T08:26:36.254Z,84.73
2023-01-19T08:29:06.363Z,84.85
2023-01-19T08:31:34.412Z,84.78
2023-01-19T08:34:02.661Z,84.55
2023-01-19T08:36:30.785Z,84.57
2023-01-19T08:38:58.452Z,83.90
2023-01-19T08:41:27.186Z,84.15
2023-01-19T08:43:54.976Z,83.73
2023-01-19T08:46:27.406Z,83.67
2023-01-19T08:48:55.346Z,83.79
2023-01-19T08:51:23.286Z,83.99
2023-01-19T08:53:53.292Z,84.19
2023-01-19T08:56:21.750Z,83.98
2023-01-19T08:59:03.494Z,84.18
2023-01-19T09:01:40.499Z,83.86
2023-01-19T09:04:09.020Z,83.88
2023-01-19T09:06:37.099Z,83.00
2023-01-19T09:09:06.380Z,82.76
2023-01-19T09:11:35.537Z,83.34
2023-01-19T09:14:06.254Z,83.45
2023-01-19T09:16:34.943Z,83.39
2023-01-19T09:19:03.257Z,82.74
2023-01-19T09:21:31.587Z,82.87
2023-01-19T09:23:59.780Z,82.07
2023-01-19T09:26:28.342Z,82.27
2023-01-19T09:28:57.860Z,81.80
2023-01-19T09:31:26.890Z,81.34
2023-01-19T09:33:55.225Z,81.84
2023-01-19T09:36:23.537Z,81.83
2023-01-19T09:38:52.101Z,82.31
2023-01-19T09:41:22.758Z,81.74
2023-01-19T09:43:57.537Z,81.96
2023-01-19T09:46:41.618Z,81.92
2023-01-19T09:49:29.323Z,81.44
2023-01-19T09:51:57.995Z,80.95
2023-01-19T09:55:02.187Z,81.46
2023-01-19T09:57:36.987Z,81.57
2023-01-19T10:00:15.280Z,81.00
2023-01-19T10:02:47.852Z,81.44
2023-01-19T10:05:46.108Z,80.92
2023-01-19T10:08:56.673Z,81.03
2023-01-19T10:11:52.703Z,80.74
2023-01-19T10:14:40.594Z,80.47
2023-01-19T10:17:52.124Z,80.09
2023-01-19T10:20:33.769Z,80.30
2023-01-19T10:23:03.119Z,80.37
2023-01-19T10:25:34.417Z,80.14
2023-01-19T10:28:04.834Z,79.84
2023-01-19T10:30:33.429Z,79.89
2023-01-19T10:33:03.761Z,79.10
2023-01-19T10:35:32.312Z,78.27
2023-01-19T10:38:02.354Z,79.06
2023-01-19T10:40:58.986Z,78.45
2023-01-19T10:43:36.055Z,78.40
2023-01-19T10:46:17.892Z,78.85
2023-01-19T10:48:49.337Z,78.32
2023-01-19T10:51:19.369Z,77.39
2023-01-19T10:54:07.481Z,77.86
2023-01-19T10:56:36.791Z,78.05
2023-01-19T10:59:07.062Z,77.93
2023-01-19T11:01:38.799Z,78.21
2023-01-19T11:04:27.208Z,77.72
2023-01-19T11:07:30.056Z,77.39
2023-01-19T11:10:23.210Z,76.25
2023-01-19T11:13:21.292Z,77.28
2023-01-19T11:15:51.657Z,77.08
2023-01-19T11:18:36.887Z,76.54
2023-01-19T11:21:25.833Z,75.75
2023-01-19T11:24:11.494Z,74.54
2023-01-19T11:26:59.225Z,74.51
2023-01-19T11:29:37.008Z,74.88
2023-01-19T11:32:34.034Z,73.69
2023-01-19T11:36:04.658Z,72.27
2023-01-19T11:38:58.278Z,71.47
2023-01-19T11:41:37.785Z,71.90
2023-01-19T11:44:36.178Z,70.68
2023-01-19T11:47:06.904Z,69.98
2023-01-19T11:49:54.231Z,69.74
2023-01-19T11:52:45.208Z,68.07
2023-01-19T11:55:49.286Z,68.61
2023-01-19T11:58:27.066Z,67.43
2023-01-19T12:01:26.202Z,67.16
2023-01-19T12:04:22.778Z,66.79
2023-01-19T12:06:59.168Z,64.24
2023-01-19T12:09:32.139Z,65.37
2023-01-19T12:12:18.568Z,64.22
2023-01-19T12:14:56.829Z,61.64
2023-01-19T12:17:38.396Z,61.93
2023-01-19T12:20:15.664Z,60.32
2023-01-19T12:22:54.810Z,57.95
2023-01-19T12:25:39.784Z,58.06
2023-01-19T12:28:16.182Z,57.75
2023-01-19T12:30:44.922Z,57.65
2023-01-19T12:33:41.823Z,57.21
2023-01-19T12:36:45.198Z,58.19
2023-01-19T12:39:12.903Z,59.41
2023-01-19T12:41:41.704Z,60.38
2023-01-19T12:44:12.453Z,58.13
2023-01-19T12:47:28.540Z,57.98
2023-01-19T12:50:14.840Z,58.67
2023-01-19T12:53:08.711Z,58.65
2023-01-19T12:56:02.029Z,55.88
2023-01-19T13:02:55.986Z,54.73
2023-01-19T13:08:15.577Z,51.61
2023-01-19T13:11:05.477Z,52.38
2023-01-19T13:13:42.373Z,51.34
2023-01-19T13:16:18.564Z,52.22
2023-01-19T13:18:56.041Z,53.34
2023-01-19T13:21:29.248Z,53.28
2023-01-19T13:23:59.077Z,54.96
2023-01-19T13:26:33.045Z,54.92
2023-01-19T13:29:08.084Z,55.45
2023-01-19T13:31:36.434Z,55.57
2023-01-19T13:34:04.596Z,55.85
2023-01-19T13:36:35.413Z,56.79
2023-01-19T13:39:06.262Z,57.38
2023-01-19T13:41:37.239Z,56.21
2023-01-19T13:44:08.451Z,59.49
2023-01-19T13:46:38.467Z,58.95
2023-01-19T13:49:19.775Z,57.77
2023-01-19T13:52:17.221Z,58.53
2023-01-19T13:54:50.916Z,58.90
2023-01-19T13:57:47.719Z,59.79
2023-01-19T14:00:21.377Z,60.74
2023-01-19T14:03:11.470Z,61.51
2023-01-19T14:05:40.423Z,61.17
2023-01-19T14:08:13.468Z,61.54
2023-01-19T14:10:44.211Z,60.98
2023-01-19T14:13:16.171Z,60.93
2023-01-19T14:15:44.157Z,61.63
2023-01-19T14:18:14.231Z,62.43
2023-01-19T14:20:41.938Z,62.19
2023-01-19T14:23:36.075Z,61.02
2023-01-19T14:26:03.361Z,63.21
2023-01-19T14:28:39.766Z,64.29
2023-01-19T14:31:24.357Z,63.66
2023-01-19T14:33:55.238Z,64.64
2023-01-19T14:36:27.075Z,65.87
2023-01-19T14:39:44.730Z,65.05
2023-01-19T15:00:18.218Z,68.94
2023-01-19T15:02:47.228Z,69.72
2023-01-19T15:05:40.314Z,69.75
2023-01-19T15:08:08.048Z,70.68
2023-01-19T16:56:32.160Z,79.43
2023-01-19T16:59:00.146Z,79.63
2023-01-19T17:10:43.627Z,78.88
2023-01-19T17:13:10.859Z,78.65
2023-01-19T17:15:38.133Z,79.10
2023-01-19T17:18:05.399Z,79.12
2023-01-19T17:24:46.548Z,79.04
2023-01-19T18:18:56.348Z,79.98
2023-01-19T18:21:27.337Z,80.10
2023-01-19T18:24:02.217Z,79.67
2023-01-19T18:26:30.277Z,79.75
2023-01-19T18:28:58.334Z,80.20
2023-01-19T18:31:27.064Z,80.54
2023-01-19T18:33:54.263Z,80.35
2023-01-19T18:36:21.488Z,80.32
2023-01-19T18:38:49.511Z,80.04
2023-01-19T18:41:19.057Z,80.35
2023-01-19T18:43:47.045Z,80.62
2023-01-19T18:46:15.268Z,80.47
2023-01-19T18:48:42.640Z,80.02
2023-01-19T18:51:12.064Z,80.01
2023-01-19T18:54:28.790Z,80.48
2023-01-19T18:56:55.914Z,79.89
2023-01-19T18:59:25.910Z,79.93
2023-01-19T19:02:58.407Z,80.20
2023-01-19T19:05:25.642Z,80.36
2023-01-19T19:07:52.858Z,80.11
2023-01-19T19:10:20.462Z,80.42
2023-01-19T19:25:44.418Z,79.80
2023-01-19T19:28:11.675Z,80.40
2023-01-19T19:48:53.853Z,81.10
2023-01-19T19:51:25.337Z,81.08
2023-01-19T20:38:06.876Z,82.29
2023-01-19T20:40:34.105Z,82.23
2023-01-19T20:43:20.375Z,82.47
2023-01-19T20:45:47.613Z,82.39
2023-01-19T20:48:14.821Z,82.15
2023-01-19T20:50:42.114Z,81.96
2023-01-19T20:58:23.104Z,81.75
2023-01-19T21:01:41.596Z,82.06
2023-01-19T21:05:08.342Z,82.06
2023-01-19T21:08:29.296Z,82.90
2023-01-19T21:10:57.290Z,82.89
2023-01-19T21:14:27.057Z,82.76
2023-01-19T22:21:35.588Z,84.98
2023-01-19T22:42:29.518Z,85.67
2023-01-19T22:44:56.679Z,85.76
2023-01-19T23:17:33.617Z,86.76
